createdAt,value
2023-06-06T00:00:13.263Z,98936.22
2023-06-06T00:03:27.939Z,98932.38
2023-06-06T00:06:25.513Z,98924.93
2023-06-06T00:09:22.106Z,98924.71
2023-06-06T00:12:15.433Z,98921.84
2023-06-06T00:15:13.167Z,98919.50
2023-06-06T00:18:08.155Z,98915.03
2023-06-06T00:21:02.879Z,98914.62
2023-06-06T00:23:57.672Z,98910.27
2023-06-06T00:26:52.067Z,98909.51
2023-06-06T00:29:46.042Z,98909.00
2023-06-06T00:32:53.426Z,98909.58
2023-06-06T00:35:39.328Z,98904.73
2023-06-06T00:38:33.638Z,98905.24
2023-06-06T00:41:30.305Z,98903.08
2023-06-06T00:44:26.829Z,98903.79
2023-06-06T00:47:21.196Z,98899.66
2023-06-06T00:50:13.555Z,98898.30
2023-06-06T00:53:31.362Z,98894.86
2023-06-06T00:56:41.352Z,98892.26
2023-06-06T00:59:58.344Z,98893.00
2023-06-06T01:03:12.449Z,98887.98
2023-06-06T01:06:37.389Z,98888.52
2023-06-06T01:10:47.351Z,98885.72
2023-06-06T01:14:05.372Z,98886.99
2023-06-06T01:17:34.379Z,98887.56
2023-06-06T01:20:48.389Z,98889.60
2023-06-06T01:24:05.487Z,98886.14
2023-06-06T01:28:56.754Z,98886.14
2023-06-06T01:32:36.017Z,98890.60
2023-06-06T01:36:17.349Z,98895.05
2023-06-06T01:39:34.653Z,98894.35
2023-06-06T01:42:30.138Z,98893.89
2023-06-06T01:45:29.027Z,98894.07
2023-06-06T01:48:23.769Z,98893.98
2023-06-06T01:51:18.461Z,98894.44
2023-06-06T01:54:12.947Z,98889.19
2023-06-06T01:57:08.798Z,98890.52
2023-06-06T02:00:06.933Z,98886.45
2023-06-06T02:03:03.752Z,98890.09
2023-06-06T02:05:58.376Z,98889.52
2023-06-06T02:09:16.700Z,98885.95
2023-06-06T02:12:23.907Z,98892.40
2023-06-06T02:15:50.712Z,98887.35
2023-06-06T02:19:20.724Z,98883.90
2023-06-06T02:22:37.747Z,98889.78
2023-06-06T02:25:54.698Z,98892.82
2023-06-06T02:29:11.725Z,98893.95
2023-06-06T02:32:07.072Z,98895.66
2023-06-06T02:35:02.301Z,98900.33
2023-06-06T02:37:57.016Z,98895.29
2023-06-06T02:40:51.742Z,98898.77
2023-06-06T02:43:47.453Z,98900.64
2023-06-06T02:46:28.626Z,98906.77
2023-06-06T02:49:23.051Z,98905.96
2023-06-06T02:52:17.452Z,98904.05
2023-06-06T02:55:19.723Z,98910.25
2023-06-06T02:58:55.727Z,98912.08
2023-06-06T03:02:02.833Z,98910.20
2023-06-06T03:05:21.482Z,98908.38
2023-06-06T03:08:40.748Z,98908.95
2023-06-06T03:11:50.749Z,98910.30
2023-06-06T03:14:58.413Z,98907.60
2023-06-06T03:18:00.074Z,98908.98
2023-06-06T03:20:59.032Z,98906.10
2023-06-06T03:24:34.722Z,98911.03
2023-06-06T03:27:55.744Z,98905.41
2023-06-06T03:31:19.994Z,98904.83
2023-06-06T03:34:36.990Z,98906.30
2023-06-06T03:37:54.725Z,98906.30
2023-06-06T03:41:09.016Z,98911.42
2023-06-06T03:44:25.713Z,98911.71
2023-06-06T03:47:33.741Z,98909.55
2023-06-06T03:50:50.747Z,98907.30
2023-06-06T03:53:45.214Z,98899.20
2023-06-06T03:56:41.695Z,98903.17
2023-06-06T03:59:36.634Z,98899.06
2023-06-06T04:02:30.966Z,98900.52
2023-06-06T04:05:36.732Z,98901.38
2023-06-06T04:08:32.107Z,98900.48
2023-06-06T04:11:27.312Z,98902.58
2023-06-06T04:14:24.221Z,98896.45
2023-06-06T04:17:19.631Z,98898.37
2023-06-06T04:20:15.062Z,98898.06
2023-06-06T04:23:14.604Z,98892.77
2023-06-06T04:26:11.459Z,98890.22
2023-06-06T04:29:08.304Z,98886.30
2023-06-06T04:32:14.722Z,98891.30
2023-06-06T04:35:35.326Z,98890.95
2023-06-06T04:38:30.346Z,98888.22
2023-06-06T04:45:02.175Z,98885.91
2023-06-06T04:47:56.652Z,98890.15
2023-06-06T04:50:53.282Z,98885.42
2023-06-06T04:53:47.334Z,98884.16
2023-06-06T04:56:41.653Z,98888.83
2023-06-06T04:59:36.346Z,98890.30
2023-06-06T05:02:30.670Z,98888.55
2023-06-06T05:05:24.978Z,98887.70
2023-06-06T05:08:21.963Z,98885.66
2023-06-06T05:11:16.113Z,98883.80
2023-06-06T05:14:10.711Z,98882.77
2023-06-06T05:17:05.216Z,98882.88
2023-06-06T05:19:59.281Z,98883.73
2023-06-06T05:22:53.254Z,98876.66
2023-06-06T05:26:09.156Z,98881.44
2023-06-06T05:29:03.229Z,98878.66
2023-06-06T05:31:57.569Z,98873.98
2023-06-06T05:34:51.618Z,98873.23
2023-06-06T05:37:49.452Z,98876.30
2023-06-06T05:40:43.663Z,98873.08
2023-06-06T05:43:38.273Z,98870.02
2023-06-06T05:46:32.644Z,98869.29
2023-06-06T05:49:27.026Z,98873.67
2023-06-06T05:52:21.655Z,98870.91
2023-06-06T05:55:32.411Z,98876.23
2023-06-06T05:58:26.582Z,98880.19
2023-06-06T06:01:21.248Z,98885.69
2023-06-06T06:04:15.543Z,98879.50
2023-06-06T06:07:11.462Z,98884.29
2023-06-06T06:10:05.844Z,98883.02
2023-06-06T06:13:00.540Z,98880.14
2023-06-06T06:15:55.613Z,98877.41
2023-06-06T06:18:49.902Z,98879.64
2023-06-06T06:21:44.120Z,98881.41
2023-06-06T06:24:38.347Z,98882.72
2023-06-06T06:27:32.806Z,98883.18
2023-06-06T06:30:27.673Z,98887.39
2023-06-06T06:33:24.097Z,98883.70
2023-06-06T06:36:18.132Z,98882.08
2023-06-06T06:39:18.790Z,98879.92
2023-06-06T06:42:13.602Z,98883.90
2023-06-06T06:45:08.970Z,98883.80
2023-06-06T06:48:03.658Z,98875.92
2023-06-06T06:50:57.752Z,98873.85
2023-06-06T06:53:53.087Z,98874.96
2023-06-06T06:56:47.494Z,98870.48
2023-06-06T06:59:42.886Z,98870.25
2023-06-06T07:02:40.784Z,98871.39
2023-06-06T07:05:39.594Z,98874.98
2023-06-06T07:08:53.675Z,98871.73
2023-06-06T07:11:47.915Z,98869.33
2023-06-06T07:14:42.358Z,98866.42
2023-06-06T07:17:36.805Z,98864.19
2023-06-06T07:20:31.200Z,98864.31
2023-06-06T07:23:25.204Z,98865.88
2023-06-06T07:26:20.476Z,98858.60
2023-06-06T07:29:14.713Z,98862.23
2023-06-06T07:32:09.813Z,98862.38
2023-06-06T07:35:04.952Z,98857.89
2023-06-06T07:37:59.128Z,98861.30
2023-06-06T07:40:53.106Z,98857.77
2023-06-06T07:43:47.444Z,98857.61
2023-06-06T07:46:41.594Z,98854.45
2023-06-06T07:49:36.035Z,98850.93
2023-06-06T07:52:32.179Z,98851.73
2023-06-06T07:55:26.856Z,98850.92
2023-06-06T07:58:26.843Z,98851.69
2023-06-06T08:01:22.222Z,98850.52
2023-06-06T08:04:16.068Z,98850.39
2023-06-06T08:07:10.987Z,98850.46
2023-06-06T08:10:05.439Z,98843.55
2023-06-06T08:13:00.179Z,98842.49
2023-06-06T08:15:54.148Z,98843.20
2023-06-06T08:18:48.491Z,98840.86
2023-06-06T08:21:42.639Z,98836.09
2023-06-06T08:24:38.432Z,98835.64
2023-06-06T08:27:33.167Z,98836.47
2023-06-06T08:30:27.321Z,98832.80
2023-06-06T08:33:21.826Z,98833.12
2023-06-06T08:36:17.156Z,98829.50
2023-06-06T08:39:11.582Z,98829.27
2023-06-06T08:42:09.768Z,98827.70
2023-06-06T08:45:06.975Z,98822.70
2023-06-06T08:48:03.427Z,98821.83
2023-06-06T08:51:00.538Z,98813.16
2023-06-06T08:53:56.252Z,98810.36
2023-06-06T08:56:53.062Z,98813.27
2023-06-06T08:59:47.221Z,98813.85
2023-06-06T09:02:42.830Z,98809.59
2023-06-06T09:05:28.096Z,98814.68
2023-06-06T09:08:22.782Z,98808.06
2023-06-06T09:11:17.545Z,98808.19
2023-06-06T09:14:12.198Z,98808.39
2023-06-06T09:17:07.510Z,98812.61
2023-06-06T09:20:06.621Z,98810.86
2023-06-06T09:23:02.079Z,98808.91
2023-06-06T09:25:56.141Z,98804.86
2023-06-06T09:28:51.013Z,98802.46
2023-06-06T09:31:45.345Z,98803.38
2023-06-06T09:34:42.122Z,98800.43
2023-06-06T09:37:45.344Z,98799.56
2023-06-06T09:40:48.200Z,98801.79
2023-06-06T09:43:42.373Z,98805.30
2023-06-06T09:46:40.313Z,98801.52
2023-06-06T09:49:38.598Z,98800.65
2023-06-06T09:52:33.709Z,98800.05
2023-06-06T09:55:28.590Z,98804.88
2023-06-06T09:58:24.417Z,98805.56
2023-06-06T10:01:18.658Z,98800.05
2023-06-06T10:04:13.945Z,98800.30
2023-06-06T10:07:10.004Z,98800.20
2023-06-06T10:10:04.482Z,98804.50
2023-06-06T10:13:01.911Z,98798.23
2023-06-06T10:15:59.651Z,98798.23
2023-06-06T10:18:55.376Z,98794.52
2023-06-06T10:21:50.813Z,98794.85
2023-06-06T10:24:45.123Z,98795.61
2023-06-06T10:27:53.230Z,98786.54
2023-06-06T10:30:59.224Z,98785.23
2023-06-06T10:34:01.635Z,98786.42
2023-06-06T10:36:58.549Z,98789.09
2023-06-06T10:40:09.569Z,98791.15
2023-06-06T10:43:19.597Z,98788.27
2023-06-06T10:46:27.196Z,98790.96
2023-06-06T10:49:22.247Z,98794.65
2023-06-06T10:52:08.690Z,98792.93
2023-06-06T10:55:15.642Z,98795.94
2023-06-06T10:58:15.076Z,98793.95
2023-06-06T11:01:10.618Z,98791.34
2023-06-06T11:04:18.379Z,98797.52
2023-06-06T11:07:20.760Z,98797.57
2023-06-06T11:10:14.833Z,98797.90
2023-06-06T11:13:30.128Z,98800.34
2023-06-06T11:17:09.137Z,98796.33
2023-06-06T11:20:04.571Z,98795.69
2023-06-06T11:23:04.694Z,98807.44
2023-06-06T11:25:58.970Z,98806.14
2023-06-06T11:28:54.694Z,98809.65
2023-06-06T11:31:50.041Z,98805.98
2023-06-06T11:34:44.062Z,98812.30
2023-06-06T11:37:38.219Z,98812.52
2023-06-06T11:40:32.463Z,98815.70
2023-06-06T11:43:26.909Z,98820.20
2023-06-06T11:46:21.239Z,98819.48
2023-06-06T11:49:15.699Z,98824.62
2023-06-06T11:52:11.590Z,98827.65
2023-06-06T11:55:06.525Z,98830.93
2023-06-06T11:58:05.797Z,98830.36
2023-06-06T12:01:01.771Z,98834.30
2023-06-06T12:03:56.393Z,98840.42
2023-06-06T12:06:56.171Z,98838.59
2023-06-06T12:10:00.582Z,98837.53
2023-06-06T12:12:55.139Z,98840.70
2023-06-06T12:15:53.050Z,98845.90
2023-06-06T12:18:53.195Z,98847.05
2023-06-06T12:21:52.253Z,98848.16
2023-06-06T12:24:50.893Z,98851.13
2023-06-06T12:27:46.762Z,98852.40
2023-06-06T12:30:45.597Z,98850.02
2023-06-06T12:33:53.229Z,98847.30
2023-06-06T12:37:10.530Z,98849.19
2023-06-06T12:40:10.954Z,98851.75
2023-06-06T12:43:07.945Z,98854.88
2023-06-06T12:46:02.322Z,98856.02
2023-06-06T12:48:56.948Z,98855.05
2023-06-06T12:51:52.367Z,98857.98
2023-06-06T12:54:46.595Z,98864.35
2023-06-06T12:57:40.828Z,98863.76
2023-06-06T13:00:35.168Z,98869.65
2023-06-06T13:03:29.416Z,98868.86
2023-06-06T13:06:23.970Z,98869.77
2023-06-06T13:09:20.192Z,98869.94
2023-06-06T13:12:14.414Z,98864.92
2023-06-06T13:15:11.180Z,98865.02
2023-06-06T13:18:06.316Z,98863.61
2023-06-06T13:21:02.930Z,98861.00
2023-06-06T13:23:57.091Z,98858.91
2023-06-06T13:26:51.354Z,98858.27
2023-06-06T13:29:46.044Z,98852.74
2023-06-06T13:32:40.297Z,98848.27
2023-06-06T13:35:34.846Z,98847.57
2023-06-06T13:38:29.162Z,98842.25
2023-06-06T13:41:23.555Z,98846.80
2023-06-06T13:44:22.981Z,98843.55
2023-06-06T13:47:19.360Z,98843.61
2023-06-06T13:50:13.998Z,98845.06
2023-06-06T13:53:08.504Z,98840.25
2023-06-06T13:56:02.542Z,98842.86
2023-06-06T13:58:56.545Z,98838.26
2023-06-06T14:01:52.989Z,98834.60
2023-06-06T14:04:47.206Z,98828.90
2023-06-06T14:07:41.446Z,98826.20
2023-06-06T14:10:35.935Z,98825.80
2023-06-06T14:13:30.022Z,98823.14
2023-06-06T14:16:24.114Z,98821.52
2023-06-06T14:19:35.832Z,98822.55
2023-06-06T14:22:34.940Z,98825.77
2023-06-06T14:25:28.939Z,98823.65
2023-06-06T14:28:06.384Z,98823.26
2023-06-06T14:31:00.587Z,98818.27
2023-06-06T14:33:54.831Z,98817.08
2023-06-06T14:36:48.943Z,98818.52
2023-06-06T14:39:43.498Z,98817.41
2023-06-06T14:42:37.669Z,98814.80
2023-06-06T14:45:32.019Z,98815.83
2023-06-06T14:48:26.593Z,98813.78
2023-06-06T14:51:20.810Z,98813.45
2023-06-06T14:54:15.629Z,98814.95
2023-06-06T14:57:11.399Z,98808.91
2023-06-06T15:00:10.742Z,98804.80
2023-06-06T15:03:05.946Z,98804.70
2023-06-06T15:06:01.345Z,98805.14
2023-06-06T15:08:56.017Z,98804.65
2023-06-06T15:11:54.057Z,98803.86
2023-06-06T15:14:49.599Z,98796.34
2023-06-06T15:17:43.552Z,98795.92
2023-06-06T15:20:37.992Z,98789.52
2023-06-06T15:23:34.740Z,98787.29
2023-06-06T15:26:29.076Z,98787.27
2023-06-06T15:29:23.255Z,98782.52
2023-06-06T15:32:18.011Z,98784.46
2023-06-06T15:35:13.325Z,98784.21
2023-06-06T15:38:07.867Z,98782.48
2023-06-06T15:41:02.029Z,98778.30
2023-06-06T15:43:56.523Z,98780.33
2023-06-06T15:46:50.968Z,98777.23
2023-06-06T15:49:45.260Z,98774.81
2023-06-06T15:52:39.340Z,98771.34
2023-06-06T15:55:33.428Z,98770.08
2023-06-06T15:58:27.531Z,98770.20
2023-06-06T16:01:21.615Z,98767.80
2023-06-06T16:04:16.289Z,98768.48
2023-06-06T16:07:11.477Z,98767.20
2023-06-06T16:10:07.668Z,98768.89
2023-06-06T16:13:01.836Z,98768.45
2023-06-06T16:15:56.034Z,98769.96
2023-06-06T16:18:50.777Z,98768.13
2023-06-06T16:21:45.157Z,98764.98
2023-06-06T16:24:40.238Z,98764.10
2023-06-06T16:27:34.258Z,98767.41
2023-06-06T16:30:29.108Z,98763.84
2023-06-06T16:33:25.166Z,98766.94
2023-06-06T16:36:20.533Z,98767.35
2023-06-06T16:39:16.064Z,98763.89
2023-06-06T16:42:14.719Z,98767.98
2023-06-06T16:45:11.388Z,98765.79
2023-06-06T16:48:07.686Z,98765.75
2023-06-06T16:51:02.055Z,98764.30
2023-06-06T16:53:56.888Z,98761.02
2023-06-06T16:56:51.312Z,98762.28
2023-06-06T16:59:45.698Z,98767.65
2023-06-06T17:02:39.858Z,98763.63
2023-06-06T17:05:33.930Z,98760.40
2023-06-06T17:08:28.164Z,98762.31
2023-06-06T17:11:24.108Z,98760.65
2023-06-06T17:14:18.454Z,98759.57
2023-06-06T17:17:14.039Z,98756.52
2023-06-06T17:20:10.295Z,98756.31
2023-06-06T17:23:04.261Z,98758.23
2023-06-06T17:25:58.785Z,98755.84
2023-06-06T17:28:53.259Z,98754.91
2023-06-06T17:31:47.864Z,98757.29
2023-06-06T17:34:42.089Z,98757.59
2023-06-06T17:37:36.344Z,98758.53
2023-06-06T17:40:31.154Z,98753.54
2023-06-06T17:43:25.123Z,98757.61
2023-06-06T17:46:19.656Z,98763.30
2023-06-06T17:49:15.086Z,98767.31
2023-06-06T17:52:10.593Z,98770.46
2023-06-06T17:55:05.212Z,98775.52
2023-06-06T17:57:59.300Z,98778.88
2023-06-06T18:00:53.961Z,98777.59
2023-06-06T18:03:48.944Z,98781.67
2023-06-06T18:06:43.791Z,98774.10
2023-06-06T18:09:40.242Z,98774.66
2023-06-06T18:12:34.969Z,98771.41
2023-06-06T18:15:29.487Z,98772.33
2023-06-06T18:18:26.044Z,98774.39
2023-06-06T18:21:21.412Z,98772.67
2023-06-06T18:24:16.032Z,98775.38
2023-06-06T18:27:11.680Z,98776.58
2023-06-06T18:30:07.823Z,98780.33
2023-06-06T18:33:02.385Z,98782.63
2023-06-06T18:35:56.594Z,98788.42
2023-06-06T18:38:51.904Z,98788.33
2023-06-06T18:41:46.043Z,98786.27
2023-06-06T18:44:40.902Z,98790.45
2023-06-06T18:47:35.960Z,98788.00
2023-06-06T18:50:30.763Z,98785.69
2023-06-06T18:53:25.710Z,98791.52
2023-06-06T18:56:20.451Z,98793.40
2023-06-06T18:59:16.967Z,98795.59
2023-06-06T19:02:12.153Z,98799.04
2023-06-06T19:05:09.981Z,98805.20
2023-06-06T19:08:05.113Z,98803.91
2023-06-06T19:10:59.681Z,98806.98
2023-06-06T19:13:54.258Z,98809.67
2023-06-06T19:16:48.889Z,98809.92
2023-06-06T19:19:44.965Z,98807.60
2023-06-06T19:22:39.192Z,98810.91
2023-06-06T19:25:33.613Z,98810.30
2023-06-06T19:28:27.785Z,98811.64
2023-06-06T19:31:23.046Z,98810.04
2023-06-06T19:34:17.087Z,98809.39
2023-06-06T19:37:13.376Z,98811.20
2023-06-06T19:40:28.554Z,98811.70
2023-06-06T19:43:23.946Z,98805.73
2023-06-06T19:46:20.420Z,98804.98
2023-06-06T19:49:14.788Z,98804.33
2023-06-06T19:52:10.959Z,98804.66
2023-06-06T19:55:06.015Z,98799.26
2023-06-06T19:58:00.396Z,98798.37
2023-06-06T20:00:58.699Z,98797.83
2023-06-06T20:03:53.355Z,98794.35
2023-06-06T20:06:47.750Z,98795.81
2023-06-06T20:09:42.006Z,98794.50
2023-06-06T20:12:36.296Z,98791.07
2023-06-06T20:15:31.792Z,98792.38
2023-06-06T20:18:26.006Z,98793.77
2023-06-06T20:21:21.009Z,98794.24
2023-06-06T20:24:15.189Z,98797.98
2023-06-06T20:27:17.638Z,98800.02
2023-06-06T20:30:17.741Z,98795.86
2023-06-06T20:33:25.976Z,98796.30
2023-06-06T20:36:19.896Z,98792.38
2023-06-06T20:39:24.360Z,98792.61
2023-06-06T20:42:19.216Z,98796.58
2023-06-06T20:45:15.100Z,98797.98
2023-06-06T20:48:10.673Z,98798.38
2023-06-06T20:51:05.201Z,98798.04
2023-06-06T20:53:59.322Z,98796.59
2023-06-06T20:56:53.892Z,98796.38
2023-06-06T20:59:47.727Z,98794.54
2023-06-06T21:02:42.145Z,98794.97
2023-06-06T21:05:36.161Z,98795.05
2023-06-06T21:08:30.529Z,98794.11
2023-06-06T21:11:24.556Z,98795.72
2023-06-06T21:14:18.586Z,98795.52
2023-06-06T21:17:12.525Z,98792.20
2023-06-06T21:20:08.144Z,98793.83
2023-06-06T21:23:02.697Z,98791.82
2023-06-06T21:25:56.925Z,98792.05
2023-06-06T21:28:51.481Z,98791.75
2023-06-06T21:31:45.645Z,98788.23
2023-06-06T21:34:40.211Z,98788.21
2023-06-06T21:37:34.291Z,98789.65
2023-06-06T21:40:28.074Z,98791.98
2023-06-06T21:43:21.875Z,98795.41
2023-06-06T21:46:15.872Z,98797.45
2023-06-06T21:49:09.861Z,98798.52
2023-06-06T21:52:03.888Z,98801.86
2023-06-06T21:54:58.059Z,98801.92
2023-06-06T21:57:52.012Z,98807.04
2023-06-06T22:00:46.079Z,98803.42
2023-06-06T22:03:40.445Z,98800.48
2023-06-06T22:06:34.699Z,98797.56
2023-06-06T22:09:28.964Z,98792.96
2023-06-06T22:12:23.324Z,98787.48
2023-06-06T22:15:17.632Z,98784.55
2023-06-06T22:18:12.074Z,98783.67
2023-06-06T22:21:40.732Z,98785.88
2023-06-06T22:25:03.998Z,98784.81
2023-06-06T22:28:17.923Z,98788.89
2023-06-06T22:31:15.644Z,98793.31
2023-06-06T22:34:12.915Z,98787.74
2023-06-06T22:37:24.879Z,98785.27
2023-06-06T22:40:48.906Z,98788.23
2023-06-06T22:43:51.284Z,98785.23
2023-06-06T22:47:05.909Z,98785.20
2023-06-06T22:50:22.890Z,98781.46
2023-06-06T22:53:39.944Z,98778.83
2023-06-06T22:57:20.887Z,98773.29
2023-06-06T23:01:00.329Z,98771.37
2023-06-06T23:04:39.637Z,98772.30
2023-06-06T23:08:22.068Z,98771.71
2023-06-06T23:12:02.367Z,98763.98
2023-06-06T23:15:19.380Z,98757.00
2023-06-06T23:18:36.394Z,98757.42
2023-06-06T23:21:31.014Z,98760.73
2023-06-06T23:24:25.475Z,98759.23
2023-06-06T23:27:20.035Z,98755.68
2023-06-06T23:30:15.504Z,98753.63
2023-06-06T23:33:10.786Z,98754.75
2023-06-06T23:36:05.912Z,98749.42
2023-06-06T23:39:00.575Z,98751.80
2023-06-06T23:41:55.172Z,98756.36
2023-06-06T23:44:49.733Z,98755.95
2023-06-06T23:47:43.971Z,98755.31
2023-06-06T23:50:38.406Z,98758.27
2023-06-06T23:53:32.664Z,98761.95
2023-06-06T23:56:26.884Z,98758.57
2023-06-06T23:59:21.203Z,98758.23
